createdAt,value
2019-03-28T00:00:12.493Z,7.50
2019-03-28T00:05:18.771Z,7.50
2019-03-28T00:10:23.590Z,7.40
2019-03-28T00:15:28.563Z,7.50
2019-03-28T00:20:33.611Z,7.50
2019-03-28T00:25:38.660Z,7.50
2019-03-28T00:30:44.346Z,7.50
2019-03-28T00:35:50.066Z,7.60
2019-03-28T00:40:55.220Z,7.50
2019-03-28T00:46:00.086Z,7.50
2019-03-28T00:51:05.135Z,7.50
2019-03-28T00:56:09.957Z,7.40
2019-03-28T01:01:14.928Z,7.40
2019-03-28T01:06:19.949Z,7.40
2019-03-28T01:11:24.793Z,7.40
2019-03-28T01:16:30.663Z,7.40
2019-03-28T01:21:35.736Z,7.40
2019-03-28T01:26:42.014Z,7.40
2019-03-28T01:31:47.063Z,7.40
2019-03-28T01:36:53.648Z,7.30
2019-03-28T01:41:58.326Z,7.30
2019-03-28T01:47:03.214Z,7.40
2019-03-28T01:52:09.183Z,7.40
2019-03-28T01:57:14.153Z,7.60
2019-03-28T02:02:18.871Z,7.60
2019-03-28T02:07:23.947Z,7.60
2019-03-28T02:12:28.993Z,7.60
2019-03-28T02:17:33.735Z,7.60
2019-03-28T02:22:38.788Z,7.60
2019-03-28T02:27:43.833Z,7.70
2019-03-28T02:32:48.578Z,7.70
2019-03-28T02:37:54.010Z,7.50
2019-03-28T02:42:58.984Z,7.50
2019-03-28T02:48:04.032Z,7.40
2019-03-28T02:53:08.781Z,7.40
2019-03-28T02:58:13.514Z,7.40
2019-03-28T03:03:18.567Z,7.30
2019-03-28T03:08:23.613Z,7.30
2019-03-28T03:13:28.358Z,7.30
2019-03-28T03:18:33.794Z,7.20
2019-03-28T03:23:38.742Z,7.10
2019-03-28T03:28:43.591Z,7.20
2019-03-28T03:33:48.552Z,7.20
2019-03-28T03:38:53.907Z,7.20
2019-03-28T03:43:58.650Z,7.30
2019-03-28T03:49:04.049Z,7.40
2019-03-28T03:54:09.669Z,7.50
2019-03-28T03:59:14.721Z,7.50
2019-03-28T04:04:19.342Z,7.60
2019-03-28T04:09:24.204Z,7.50
2019-03-28T04:14:28.945Z,7.60
2019-03-28T04:19:34.302Z,7.70
2019-03-28T04:24:39.044Z,7.70
2019-03-28T04:29:43.785Z,7.70
2019-03-28T04:34:48.528Z,7.70
2019-03-28T04:39:55.116Z,7.70
2019-03-28T04:45:00.854Z,7.70
2019-03-28T04:50:06.525Z,7.70
2019-03-28T04:55:11.488Z,7.70
2019-03-28T05:00:18.079Z,7.80
2019-03-28T05:05:22.895Z,7.80
2019-03-28T05:10:27.534Z,7.80
2019-03-28T05:15:32.606Z,7.90
2019-03-28T05:20:37.656Z,7.80
2019-03-28T05:25:42.399Z,7.80
2019-03-28T05:30:47.140Z,7.80
2019-03-28T05:35:52.297Z,7.90
2019-03-28T05:40:57.239Z,7.90
2019-03-28T05:46:02.880Z,7.90
2019-03-28T05:51:07.964Z,8.00
2019-03-28T05:56:13.002Z,8.10
2019-03-28T06:01:17.750Z,8.20
2019-03-28T06:06:22.486Z,8.50
2019-03-28T06:11:27.233Z,8.60
2019-03-28T06:16:31.971Z,8.70
2019-03-28T06:21:39.509Z,8.70
2019-03-28T06:26:43.283Z,8.60
2019-03-28T06:31:55.052Z,8.60
2019-03-28T06:36:54.599Z,8.70
2019-03-28T06:41:59.443Z,9.00
2019-03-28T06:47:04.724Z,9.10
2019-03-28T06:52:09.771Z,9.20
2019-03-28T06:57:14.829Z,9.10
2019-03-28T07:02:21.892Z,9.40
2019-03-28T07:07:26.147Z,9.50
2019-03-28T07:12:31.198Z,9.70
2019-03-28T07:17:36.025Z,9.90
2019-03-28T07:22:41.886Z,10.10
2019-03-28T07:27:47.862Z,10.30
2019-03-28T07:32:52.807Z,10.30
2019-03-28T07:37:58.904Z,10.30
2019-03-28T07:43:03.648Z,10.40
2019-03-28T07:48:08.474Z,10.40
2019-03-28T07:53:13.435Z,10.50
2019-03-28T07:58:18.482Z,10.50
2019-03-28T08:03:23.304Z,10.40
2019-03-28T08:08:38.263Z,10.50
2019-03-28T08:13:34.559Z,10.40
2019-03-28T08:18:39.602Z,10.30
2019-03-28T08:23:44.346Z,10.20
2019-03-28T08:28:50.314Z,10.10
2019-03-28T08:33:56.286Z,10.10
2019-03-28T08:39:01.002Z,9.90
2019-03-28T08:44:07.618Z,10.00
2019-03-28T08:49:12.662Z,10.10
2019-03-28T08:54:17.490Z,10.20
2019-03-28T08:59:22.452Z,10.30
2019-03-28T09:04:27.501Z,10.20
2019-03-28T09:09:32.322Z,10.30
2019-03-28T09:14:37.293Z,10.20
2019-03-28T09:19:42.351Z,10.20
2019-03-28T09:24:47.070Z,10.20
2019-03-28T09:29:52.134Z,10.40
2019-03-28T09:34:57.764Z,10.40
2019-03-28T09:40:02.626Z,11.00
2019-03-28T09:45:09.262Z,11.40
2019-03-28T09:50:14.275Z,11.40
2019-03-28T09:55:19.228Z,11.50
2019-03-28T10:00:24.044Z,11.70
2019-03-28T10:05:29.002Z,11.90
2019-03-28T10:10:33.735Z,12.30
2019-03-28T10:15:38.523Z,12.10
2019-03-28T10:20:43.564Z,12.50
2019-03-28T10:25:48.903Z,12.20
2019-03-28T10:30:53.960Z,12.20
2019-03-28T10:35:59.004Z,12.80
2019-03-28T10:41:04.051Z,13.10
2019-03-28T10:46:09.101Z,12.80
2019-03-28T10:51:14.149Z,12.20
2019-03-28T10:56:23.378Z,11.30
2019-03-28T11:01:46.968Z,11.10
2019-03-28T11:06:32.781Z,11.00
2019-03-28T11:11:37.726Z,10.80
2019-03-28T11:16:42.469Z,11.20
2019-03-28T11:21:47.197Z,11.10
2019-03-28T11:26:52.046Z,11.00
2019-03-28T11:31:57.005Z,11.20
2019-03-28T11:37:02.030Z,11.30
2019-03-28T11:42:06.976Z,11.30
2019-03-28T11:47:12.037Z,11.30
2019-03-28T11:52:16.895Z,11.30
2019-03-28T11:57:21.948Z,11.40
2019-03-28T12:02:26.990Z,11.40
2019-03-28T12:07:31.735Z,11.70
2019-03-28T12:12:36.567Z,11.80
2019-03-28T12:17:41.524Z,11.90
2019-03-28T12:22:46.215Z,11.90
2019-03-28T12:27:51.319Z,12.20
2019-03-28T12:32:56.057Z,12.30
2019-03-28T12:38:00.798Z,12.30
2019-03-28T12:43:05.621Z,12.30
2019-03-28T12:48:10.981Z,12.10
2019-03-28T12:53:15.956Z,12.40
2019-03-28T12:58:20.690Z,12.50
2019-03-28T13:03:25.388Z,12.50
2019-03-28T13:08:31.708Z,12.50
2019-03-28T13:13:36.758Z,12.50
2019-03-28T13:18:41.810Z,12.70
2019-03-28T13:23:46.554Z,12.80
2019-03-28T13:28:51.908Z,12.90
2019-03-28T13:33:57.649Z,13.00
2019-03-28T13:39:02.618Z,13.40
2019-03-28T13:44:07.672Z,13.30
2019-03-28T13:49:14.033Z,13.20
2019-03-28T13:54:19.579Z,13.40
2019-03-28T13:59:24.875Z,13.50
2019-03-28T14:04:29.600Z,13.30
2019-03-28T14:09:34.328Z,13.10
2019-03-28T14:14:40.076Z,13.20
2019-03-28T14:19:45.161Z,13.40
2019-03-28T14:24:50.217Z,13.50
2019-03-28T14:29:54.953Z,13.60
2019-03-28T14:35:00.367Z,13.10
2019-03-28T14:40:08.124Z,12.80
2019-03-28T14:45:13.257Z,13.20
2019-03-28T14:50:21.717Z,14.00
2019-03-28T14:55:26.956Z,14.00
2019-03-28T15:00:46.389Z,13.60
2019-03-28T15:05:49.651Z,13.10
2019-03-28T15:10:54.704Z,12.90
2019-03-28T15:15:59.457Z,12.80
2019-03-28T15:21:04.501Z,12.60
2019-03-28T15:26:09.540Z,12.40
2019-03-28T15:31:14.591Z,12.30
2019-03-28T15:36:19.409Z,12.30
2019-03-28T15:41:24.356Z,12.40
2019-03-28T15:46:29.429Z,12.40
2019-03-28T15:51:35.478Z,12.30
2019-03-28T15:56:40.230Z,12.30
2019-03-28T16:01:44.968Z,12.40
2019-03-28T16:06:49.952Z,12.40
2019-03-28T16:12:02.402Z,12.40
2019-03-28T16:17:01.556Z,12.40
2019-03-28T16:22:06.617Z,12.40
2019-03-28T16:27:11.671Z,12.50
2019-03-28T16:32:17.052Z,12.50
2019-03-28T16:37:22.080Z,12.30
2019-03-28T16:42:27.125Z,12.00
2019-03-28T16:47:32.175Z,11.80
2019-03-28T16:52:37.525Z,11.80
2019-03-28T16:57:42.267Z,11.70
2019-03-28T17:02:47.317Z,11.70
2019-03-28T17:07:52.368Z,11.70
2019-03-28T17:12:57.186Z,11.70
2019-03-28T17:18:02.157Z,11.70
2019-03-28T17:23:07.287Z,11.70
2019-03-28T17:28:12.259Z,11.60
2019-03-28T17:33:17.931Z,11.30
2019-03-28T17:38:22.854Z,11.10
2019-03-28T17:43:27.715Z,11.10
2019-03-28T17:48:32.535Z,10.90
2019-03-28T17:53:37.817Z,10.60
2019-03-28T17:58:42.502Z,10.40
2019-03-28T18:03:47.603Z,10.10
2019-03-28T18:08:52.650Z,9.70
2019-03-28T18:13:57.491Z,9.30
2019-03-28T18:19:02.753Z,9.00
2019-03-28T18:24:07.489Z,8.70
2019-03-28T18:29:12.539Z,8.60
2019-03-28T18:34:17.282Z,8.40
2019-03-28T18:39:22.331Z,8.20
2019-03-28T18:44:27.154Z,8.20
2019-03-28T18:49:32.121Z,7.90
2019-03-28T18:54:37.171Z,7.80
2019-03-28T18:59:42.219Z,7.70
2019-03-28T19:04:47.275Z,7.60
2019-03-28T19:09:52.095Z,7.60
2019-03-28T19:14:57.341Z,7.50
2019-03-28T19:20:03.338Z,7.30
2019-03-28T19:25:09.390Z,7.20
2019-03-28T19:30:14.979Z,7.10
2019-03-28T19:35:32.223Z,7.10
2019-03-28T19:40:26.274Z,7.30
2019-03-28T19:45:36.374Z,7.40
2019-03-28T19:50:41.947Z,7.20
2019-03-28T19:55:47.591Z,7.10
2019-03-28T20:00:52.646Z,7.00
2019-03-28T20:05:57.393Z,7.00
2019-03-28T20:11:02.746Z,6.90
2019-03-28T20:16:07.493Z,6.90
2019-03-28T20:21:12.919Z,7.00
2019-03-28T20:26:19.761Z,7.00
2019-03-28T20:31:24.484Z,6.90
2019-03-28T20:36:37.485Z,7.00
2019-03-28T20:41:35.800Z,7.10
2019-03-28T20:46:41.018Z,7.30
2019-03-28T20:51:47.141Z,7.20
2019-03-28T20:56:52.178Z,7.10
2019-03-28T21:01:57.059Z,7.00
2019-03-28T21:07:03.175Z,6.80
2019-03-28T21:12:07.938Z,6.70
2019-03-28T21:17:12.679Z,6.30
2019-03-28T21:22:17.729Z,6.40
2019-03-28T21:27:22.783Z,6.30
2019-03-28T21:32:27.829Z,6.20
2019-03-28T21:37:32.570Z,5.90
2019-03-28T21:42:37.312Z,5.80
2019-03-28T21:47:42.053Z,5.80
2019-03-28T21:52:47.103Z,5.60
2019-03-28T21:57:52.158Z,5.60
2019-03-28T22:02:56.895Z,5.70
2019-03-28T22:08:02.099Z,5.60
2019-03-28T22:13:06.996Z,5.60
2019-03-28T22:18:11.734Z,5.70
2019-03-28T22:23:16.787Z,5.90
2019-03-28T22:28:21.502Z,5.90
2019-03-28T22:33:27.578Z,5.70
2019-03-28T22:38:32.546Z,5.50
2019-03-28T22:43:38.782Z,5.60
2019-03-28T22:48:44.518Z,5.50
2019-03-28T22:53:49.306Z,5.40
2019-03-28T22:58:54.280Z,5.30
2019-03-28T23:03:59.327Z,5.20
2019-03-28T23:09:05.588Z,5.10
2019-03-28T23:14:10.669Z,5.40
2019-03-28T23:19:15.705Z,5.50
2019-03-28T23:24:20.447Z,5.30
2019-03-28T23:29:25.509Z,5.50
2019-03-28T23:34:30.523Z,5.70
2019-03-28T23:39:35.570Z,5.90
2019-03-28T23:44:40.644Z,6.10
2019-03-28T23:49:45.677Z,6.30
2019-03-28T23:54:50.792Z,6.30
2019-03-28T23:59:55.792Z,6.30
